| time (UTC) | temp F | wind direction | speed MPH | gust MPH | rain 1hr in | rain 24hr in | rain mn in | humidity % | barometer mb |
| 20260502223016 | 62 | 0.0 | 0.0 | 0.00 | 0.00 | 0.00 | 49 | 879.5 | |
| 20260502222016 | 62 | 0.0 | 0.0 | 0.00 | 0.00 | 0.00 | 49 | 879.5 | |
| 20260502221016 | 62 | 0.0 | 0.0 | 0.00 | 0.00 | 0.00 | 50 | 879.5 | |
| 20260502220016 | 62 | 0.0 | 0.0 | 0.00 | 0.00 | 0.00 | 50 | 879.6 | |
| 20260502215036 | 62 | 0.0 | 0.0 | 0.00 | 0.00 | 0.00 | 48 | 879.7 | |
| 20260502214016 | 64 | 0.0 | 0.0 | 0.00 | 0.00 | 0.00 | 41 | 879.9 | |
| 20260502213016 | 64 | 0.0 | 0.0 | 0.00 | 0.00 | 0.00 | 40 | 880.0 | |
| 20260502212015 | 64 | 0.0 | 0.0 | 0.00 | 0.00 | 0.00 | 40 | 880.1 | |
| 20260502211016 | 65 | 0.0 | 0.0 | 0.00 | 0.00 | 0.00 | 39 | 880.3 | |
| 20260502210016 | 65 | 0.0 | 0.0 | 0.00 | 0.00 | 0.00 | 39 | 880.4 | |
| 20260502205016 | 64 | 0.0 | 0.0 | 0.00 | 0.00 | 0.00 | 40 | 880.3 | |
| 20260502204016 | 64 | 0.0 | 0.0 | 0.00 | 0.00 | 0.00 | 40 | 880.5 | |
| 20260502203015 | 64 | 0.0 | 0.0 | 0.00 | 0.00 | 0.00 | 41 | 880.6 | |
| 20260502202015 | 64 | 0.0 | 0.0 | 0.00 | 0.00 | 0.00 | 40 | 880.6 | |
| 20260502201015 | 64 | 0.0 | 0.0 | 0.00 | 0.00 | 0.00 | 41 | 880.6 | |
| 20260502200015 | 63 | 0.0 | 0.0 | 0.00 | 0.00 | 0.00 | 42 | 880.7 | |
| 20260502195016 | 64 | 0.0 | 0.0 | 0.00 | 0.00 | 0.00 | 41 | 880.6 | |
| 20260502194015 | 64 | 0.0 | 0.0 | 0.00 | 0.00 | 0.00 | 41 | 880.6 | |
| 20260502193015 | 65 | 0.0 | 0.0 | 0.00 | 0.00 | 0.00 | 41 | 880.8 | |
| 20260502192017 | 64 | 0.0 | 0.0 | 0.00 | 0.00 | 0.00 | 42 | 880.8 | |
| 20260502191017 | 65 | 0.0 | 0.0 | 0.00 | 0.00 | 0.00 | 41 | 880.9 | |
| 20260502190037 | 63 | 0.0 | 0.0 | 0.00 | 0.00 | 0.00 | 44 | 881.0 | |
| 20260502185039 | 62 | 0.0 | 0.0 | 0.00 | 0.00 | 0.00 | 43 | 881.1 | |
| 20260502184017 | 62 | 0.0 | 0.0 | 0.00 | 0.00 | 0.00 | 45 | 881.3 | |
| 20260502182017 | 61 | 0.0 | 0.0 | 0.00 | 0.00 | 0.00 | 46 | 881.4 | |
| 20260502181017 | 61 | 0.0 | 0.0 | 0.00 | 0.00 | 0.00 | 46 | 881.6 | |
| 20260502180138 | 61 | 0.0 | 0.0 | 0.00 | 0.00 | 0.00 | 47 | 881.7 | |
| 20260502164018 | 58 | 0.0 | 0.0 | 0.00 | 0.00 | 0.00 | 51 | 881.9 | |
| 20260502163017 | 57 | 0.0 | 0.0 | 0.00 | 0.00 | 0.00 | 52 | 881.9 | |
| 20260502162017 | 57 | 0.0 | 0.0 | 0.00 | 0.00 | 0.00 | 52 | 881.8 | |
| 20260502161017 | 56 | 0.0 | 0.0 | 0.00 | 0.00 | 0.00 | 55 | 881.7 | |
| 20260502152037 | 53 | 0.0 | 0.0 | 0.00 | 0.00 | 0.00 | 61 | 881.6 | |
| 20260502151017 | 52 | 0.0 | 0.0 | 0.00 | 0.00 | 0.00 | 62 | 881.4 | |
| 20260502123016 | 47 | 0.0 | 0.0 | 0.00 | 0.01 | 0.00 | 71 | 880.7 | |
| 20260502122016 | 47 | 0.0 | 0.0 | 0.00 | 0.03 | 0.00 | 70 | 880.6 | |
| 20260502121016 | 47 | 0.0 | 0.0 | 0.00 | 0.05 | 0.00 | 71 | 880.7 | |
| 20260502115016 | 47 | 0.0 | 0.0 | 0.00 | 0.05 | 0.00 | 70 | 880.7 | |
| 20260502114016 | 46 | 0.0 | 0.0 | 0.00 | 0.05 | 0.00 | 71 | 880.7 | |
| 20260502113036 | 46 | 0.0 | 0.0 | 0.00 | 0.05 | 0.00 | 71 | 880.7 | |
| 20260502112036 | 46 | 0.0 | 0.0 | 0.00 | 0.05 | 0.00 | 71 | 880.6 | |
| 20260502111016 | 46 | 0.0 | 0.0 | 0.00 | 0.05 | 0.00 | 71 | 880.7 | |
| 20260502110036 | 46 | 0.0 | 0.0 | 0.00 | 0.05 | 0.00 | 71 | 880.6 | |
| 20260502105016 | 46 | 0.0 | 0.0 | 0.00 | 0.05 | 0.00 | 71 | 880.6 | |
| 20260502104016 | 46 | 0.0 | 0.0 | 0.00 | 0.05 | 0.00 | 71 | 880.5 | |
| 20260502103036 | 46 | 0.0 | 0.0 | 0.00 | 0.05 | 0.00 | 71 | 880.5 | |
| 20260502102016 | 46 | 0.0 | 0.0 | 0.00 | 0.05 | 0.00 | 71 | 880.2 | |
| 20260502101016 | 47 | 0.0 | 0.0 | 0.00 | 0.05 | 0.00 | 70 | 880.3 | |
| 20260502091015 | 47 | 0.0 | 0.0 | 0.00 | 0.05 | 0.00 | 69 | 880.1 | |
| 20260502071037 | 47 | 0.0 | 0.0 | 0.00 | 0.05 | 0.00 | 70 | 880.1 | |
| 20260502070017 | 47 | 0.0 | 0.0 | 0.00 | 0.05 | 0.00 | 70 | 880.0 | |
| 20260502065017 | 47 | 0.0 | 0.0 | 0.00 | 0.05 | 0.00 | 70 | 879.9 | |
| 20260502064037 | 47 | 0.0 | 0.0 | 0.00 | 0.05 | 0.00 | 70 | 879.9 | |
| 20260502063017 | 47 | 0.0 | 0.0 | 0.00 | 0.05 | 0.00 | 70 | 879.9 | |
| 20260502062017 | 47 | 0.0 | 0.0 | 0.00 | 0.05 | 0.00 | 69 | 880.0 | |
| 20260502061017 | 48 | 0.0 | 0.0 | 0.00 | 0.05 | 0.00 | 69 | 879.8 | |
| 20260502060017 | 48 | 0.0 | 0.0 | 0.00 | 0.05 | 0.00 | 69 | 879.6 | |
| 20260502055017 | 47 | 0.0 | 0.0 | 0.00 | 0.05 | 0.00 | 70 | 879.4 | |
| 20260502054017 | 47 | 0.0 | 0.0 | 0.00 | 0.05 | 0.00 | 69 | 879.6 | |
| 20260502053018 | 48 | 0.0 | 0.0 | 0.00 | 0.05 | 0.00 | 70 | 879.8 | |
| 20260502052017 | 48 | 0.0 | 0.0 | 0.00 | 0.05 | 0.00 | 69 | 879.6 | |
| 20260502051017 | 48 | 0.0 | 0.0 | 0.00 | 0.05 | 0.00 | 69 | 879.7 | |
| 20260502050124 | 48 | 0.0 | 0.0 | 0.00 | 0.05 | 0.00 | 69 | 879.7 | |
| 20260502045017 | 48 | 0.0 | 0.0 | 0.00 | 0.05 | 0.00 | 70 | 879.6 | |
| 20260502044016 | 48 | 0.0 | 0.0 | 0.00 | 0.05 | 0.00 | 70 | 879.6 | |
| 20260502043018 | 48 | 0.0 | 0.0 | 0.00 | 0.05 | 0.00 | 70 | 879.6 | |
| 20260502042017 | 48 | 0.0 | 0.0 | 0.00 | 0.05 | 0.00 | 70 | 879.7 | |
| 20260502041017 | 48 | 0.0 | 0.0 | 0.00 | 0.05 | 0.00 | 70 | 879.6 | |
| 20260502040016 | 48 | 0.0 | 0.0 | 0.00 | 0.05 | 0.00 | 69 | 879.3 | |
| 20260502035017 | 48 | 0.0 | 0.0 | 0.00 | 0.05 | 0.00 | 69 | 879.1 | |
| 20260502034016 | 49 | 0.0 | 0.0 | 0.00 | 0.05 | 0.00 | 68 | 878.9 | |
| 20260502033017 | 49 | 0.0 | 0.0 | 0.00 | 0.05 | 0.00 | 68 | 878.6 | |
| 20260502032037 | 49 | 0.0 | 0.0 | 0.00 | 0.05 | 0.00 | 68 | 878.5 | |
| 20260502031016 | 49 | 0.0 | 0.0 | 0.00 | 0.05 | 0.00 | 67 | 878.4 | |
| 20260502030016 | 49 | 0.0 | 0.0 | 0.00 | 0.05 | 0.00 | 68 | 878.1 | |
| 20260502025016 | 49 | 0.0 | 0.0 | 0.00 | 0.05 | 0.00 | 68 | 878.0 | |
| 20260502024016 | 49 | 0.0 | 0.0 | 0.00 | 0.05 | 0.00 | 67 | 877.8 | |
| 20260502023016 | 50 | 0.0 | 0.0 | 0.00 | 0.05 | 0.00 | 66 | 877.6 | |
| 20260502022036 | 50 | 0.0 | 0.0 | 0.00 | 0.05 | 0.00 | 65 | 877.6 | |
| 20260502021038 | 51 | 0.0 | 0.0 | 0.00 | 0.05 | 0.00 | 64 | 877.4 | |
| 20260502020016 | 51 | 0.0 | 0.0 | 0.00 | 0.05 | 0.00 | 64 | 877.5 | |
| 20260502015016 | 51 | 0.0 | 0.0 | 0.00 | 0.05 | 0.00 | 63 | 877.1 | |
| 20260502014018 | 52 | 0.0 | 0.0 | 0.00 | 0.05 | 0.00 | 62 | 877.1 | |
| 20260502013018 | 52 | 0.0 | 0.0 | 0.00 | 0.05 | 0.00 | 61 | 876.7 | |
| 20260502012016 | 52 | 0.0 | 0.0 | 0.00 | 0.05 | 0.00 | 61 | 876.5 | |
| 20260502011036 | 53 | 0.0 | 0.0 | 0.00 | 0.05 | 0.00 | 60 | 876.3 | |
| 20260502010016 | 53 | 0.0 | 0.0 | 0.00 | 0.05 | 0.00 | 59 | 876.2 | |
| 20260502005036 | 54 | 0.0 | 0.0 | 0.00 | 0.05 | 0.00 | 57 | 876.1 | |
| 20260502004017 | 55 | 0.0 | 0.0 | 0.00 | 0.05 | 0.00 | 56 | 876.0 | |
| 20260502003016 | 56 | 0.0 | 0.0 | 0.00 | 0.05 | 0.00 | 54 | 875.9 | |
| 20260502002016 | 57 | 0.0 | 0.0 | 0.00 | 0.05 | 0.00 | 53 | 875.7 | |
| 20260502001016 | 58 | 0.0 | 0.0 | 0.00 | 0.05 | 0.00 | 51 | 875.5 | |
| 20260502000016 | 59 | 0.0 | 0.0 | 0.00 | 0.05 | 0.05 | 50 | 875.5 | |
| 20260501235017 | 59 | 0.0 | 0.0 | 0.00 | 0.05 | 0.05 | 49 | 875.4 | |
| 20260501234016 | 58 | 0.0 | 0.0 | 0.00 | 0.05 | 0.05 | 50 | 875.5 | |
| 20260501233016 | 58 | 0.0 | 0.0 | 0.00 | 0.05 | 0.05 | 50 | 875.6 | |
| 20260501232016 | 58 | 0.0 | 0.0 | 0.00 | 0.05 | 0.05 | 50 | 875.7 | |
| 20260501231016 | 59 | 0.0 | 0.0 | 0.00 | 0.05 | 0.05 | 48 | 875.4 | |
| 20260501230016 | 60 | 0.0 | 0.0 | 0.00 | 0.05 | 0.05 | 47 | 875.3 | |
| 20260501225016 | 61 | 0.0 | 0.0 | 0.00 | 0.05 | 0.05 | 46 | 875.2 | |
| 20260501224016 | 61 | 0.0 | 0.0 | 0.00 | 0.05 | 0.05 | 46 | 875.1 |